Canovanas, PR

1:13 PM AST on March 02, 2015 (GMT -0400)
Ciudad Jardin | Change Station
CLOSE
Current Station
Personal Weather Station
Location: Carolina, PR
Elevation: 10 ft
Nearby Weather Stations

Elev 10 ft 18.37 °N, 65.93 °W | Updated 1 minute ago

Mostly Cloudy
Mostly Cloudy
81.6 °F
Feels Like 84 °F
N
2.0
Wind Variable Wind from SSE
Gusts 9.0 mph

Today
High -- | Low -- °F
--% Chance of Precip.
Yesterday
High -- | Low -- °F
Precip. -- in
6:41 AM 6:29 PM
Waxing Gibbous, 92% visible
Pressure 30.07 in
Visibility 10.0 miles
Clouds Few 3400 ft
Mostly Cloudy 7000 ft
Heat Index 84 °F
Dew Point 68 °F
Humidity 63%
Rainfall 0.31 in
Snow Depth Not available.
UV 6 out of 12
Pollen Not available.
Air Quality Not available.
Flu Activity Not available.
METAR TJSJ 021656Z 10012KT 10SM FEW034 BKN070 27/21 A3007 RMK AO2 RAE04 SLP182 P0000 T02720206

More Conditions Fewer Conditions

Pressure 30.07 in
Visibility 10.0 miles
Clouds Few 3400 ft
Mostly Cloudy 7000 ft
Heat Index 84 °F
Dew Point 68 °F
Humidity 63%
Rainfall 0.31 in
Snow Depth Not available.
UV 6 out of 12
Pollen Not available.
Air Quality Not available.
Flu Activity Not available.
METAR TJSJ 021656Z 10012KT 10SM FEW034 BKN070 27/21 A3007 RMK AO2 RAE04 SLP182 P0000 T02720206

More Conditions Fewer Conditions

10-Day Weather Forecast

Almanac

Astronomy

Mar. 02, 2015 Rise Set
Actual Time
Civil Twilight
Nautical Twilight
Astronomical Twilight
Moon
Length of Visible Light
Length of Day
Tomorrow will be .
, % of the Moon is Illuminated

Today's Extremes

State Highs State Lows

Community

WunderPhotos

Upload Photos

1,801,855 photos uploaded!

WunderBlogs® & News

Nearby

Air Quality

  Air Quality AQ Index Pollutant
Not available.

Snow Depth

Station Depth Elevation

Earthquake Activity

City Distance Mag. Time & Date
Minimum magnitude displayed is 2.5.

Coastal Water Temperatures

Place Temperature

Nearby Weather Stations